Time;durP1;ratioP1;P1;durP2;ratioP2;P2;SDS_P1;SDS_P2;PMS_P1;PMS_P2;Temp;Humidity;BMP_temperature;BMP_pressure;BME280_temperature;BME280_humidity;BME280_pressure;Samples;Min_cycle;Max_cycle;Signal;HPM_P1;HPM_P2
2023/12/27 00:00:31;;;;;;;16.52;2.60;;;7.80;99.90;;;;;;5113128;28;20471;-77
2023/12/27 00:02:58;;;;;;;15.68;2.40;;;7.90;99.90;;;;;;5113263;27;20204;-78
2023/12/27 00:05:23;;;;;;;14.20;2.15;;;7.90;99.90;;;;;;5112926;27;20049;-78
2023/12/27 00:07:49;;;;;;;10.45;2.03;;;7.80;99.90;;;;;;5111689;27;20028;-78
2023/12/27 00:10:15;;;;;;;13.32;2.45;;;7.90;99.90;;;;;;5118864;27;20088;-77
2023/12/27 00:12:41;;;;;;;17.73;2.72;;;7.90;99.90;;;;;;5129644;27;20019;-78
2023/12/27 00:15:07;;;;;;;11.15;1.92;;;7.90;99.90;;;;;;5130360;27;20027;-77
2023/12/27 00:17:32;;;;;;;12.82;2.08;;;7.90;99.90;;;;;;5128957;27;20130;-77
2023/12/27 00:19:58;;;;;;;11.00;2.85;;;7.90;99.90;;;;;;5129360;27;20471;-77
2023/12/27 00:22:24;;;;;;;11.00;2.55;;;7.80;99.90;;;;;;5127742;27;20026;-77
2023/12/27 00:24:50;;;;;;;11.25;2.05;;;7.90;99.90;;;;;;5128348;27;20011;-77
2023/12/27 00:27:15;;;;;;;12.13;2.67;;;7.90;99.90;;;;;;5114944;27;20385;-78
2023/12/27 00:29:41;;;;;;;15.40;2.30;;;7.90;99.90;;;;;;5119479;27;20114;-78
2023/12/27 00:32:09;;;;;;;16.05;2.67;;;7.90;99.90;;;;;;5128273;27;20799;-77
2023/12/27 00:34:35;;;;;;;18.02;2.78;;;7.80;99.90;;;;;;5120225;27;20026;-78
2023/12/27 00:37:01;;;;;;;10.43;2.53;;;7.80;99.90;;;;;;5113640;28;20478;-77
2023/12/27 00:39:27;;;;;;;13.57;1.92;;;7.90;99.90;;;;;;5120067;27;20063;-77
2023/12/27 00:41:53;;;;;;;10.60;2.33;;;7.90;99.90;;;;;;5127615;27;20479;-78
2023/12/27 00:44:19;;;;;;;13.05;2.60;;;7.90;99.90;;;;;;5110211;28;20020;-77
2023/12/27 00:46:45;;;;;;;14.38;3.42;;;7.90;99.90;;;;;;5119822;27;20114;-77
2023/12/27 00:49:11;;;;;;;11.07;2.33;;;7.90;99.90;;;;;;5130911;27;20060;-77
2023/12/27 00:51:37;;;;;;;12.85;2.90;;;7.90;99.90;;;;;;5115067;28;20069;-78
2023/12/27 00:54:03;;;;;;;14.10;2.50;;;7.90;99.90;;;;;;5109853;28;20402;-77
2023/12/27 00:56:29;;;;;;;9.95;2.35;;;7.90;99.90;;;;;;5111024;28;20378;-76
2023/12/27 00:58:54;;;;;;;12.02;2.20;;;7.90;99.90;;;;;;5109769;28;20028;-78
2023/12/27 01:01:20;;;;;;;13.82;3.10;;;8.00;99.90;;;;;;5123993;28;20027;-76
2023/12/27 01:03:46;;;;;;;15.05;2.50;;;8.00;99.90;;;;;;5109975;28;20035;-76
2023/12/27 01:06:12;;;;;;;15.18;2.10;;;8.00;99.90;;;;;;5094074;28;20118;-77
2023/12/27 01:08:38;;;;;;;11.57;2.35;;;8.00;99.90;;;;;;5131260;28;20011;-80
2023/12/27 01:11:05;;;;;;;16.52;2.65;;;8.00;99.90;;;;;;5128218;28;20468;-77
2023/12/27 01:13:31;;;;;;;9.93;2.00;;;8.00;99.90;;;;;;5119316;28;20073;-77
2023/12/27 01:15:59;;;;;;;12.07;2.13;;;8.10;99.90;;;;;;5109237;28;20015;-76
2023/12/27 01:18:25;;;;;;;13.43;2.33;;;8.20;99.90;;;;;;5119821;28;20023;-76
2023/12/27 01:20:50;;;;;;;12.93;1.88;;;8.20;99.90;;;;;;5109200;28;20473;-77
2023/12/27 01:23:16;;;;;;;12.18;1.67;;;8.10;99.90;;;;;;5101445;28;20053;-77
2023/12/27 01:25:42;;;;;;;12.35;2.17;;;8.30;99.90;;;;;;5127775;28;20452;-79
2023/12/27 01:28:07;;;;;;;14.48;2.30;;;8.30;99.90;;;;;;5100868;27;20019;-78
2023/12/27 01:30:33;;;;;;;11.18;1.65;;;8.40;99.90;;;;;;5133817;27;20474;-79
2023/12/27 01:32:59;;;;;;;8.27;2.08;;;8.40;99.90;;;;;;5115768;27;20027;-78
2023/12/27 01:35:25;;;;;;;6.10;1.33;;;8.30;99.90;;;;;;5132352;27;20047;-77
2023/12/27 01:37:51;;;;;;;9.20;1.67;;;8.30;99.90;;;;;;5122260;27;20023;-78
2023/12/27 01:40:17;;;;;;;11.48;1.63;;;8.30;99.90;;;;;;5118770;27;20095;-78
2023/12/27 01:42:43;;;;;;;9.80;1.67;;;8.40;99.90;;;;;;5113578;28;20028;-79
2023/12/27 01:45:09;;;;;;;11.45;1.60;;;8.50;99.90;;;;;;5129296;27;20377;-78
2023/12/27 01:47:37;;;;;;;8.88;1.42;;;8.40;99.90;;;;;;5134482;27;20022;-78
2023/12/27 01:50:04;;;;;;;7.95;1.98;;;8.40;99.90;;;;;;5131251;27;20467;-78
2023/12/27 01:52:31;;;;;;;7.55;1.50;;;8.60;99.90;;;;;;5095716;27;20020;-78
2023/12/27 01:54:56;;;;;;;5.00;1.20;;;8.60;99.90;;;;;;5129543;27;20055;-79
2023/12/27 01:57:22;;;;;;;6.88;1.25;;;8.70;99.90;;;;;;5134093;27;20526;-77
2023/12/27 01:59:49;;;;;;;6.93;1.13;;;8.60;99.90;;;;;;5131495;27;20030;-77
2023/12/27 02:02:15;;;;;;;4.32;1.15;;;8.80;99.90;;;;;;5095493;28;20045;-77
2023/12/27 02:04:40;;;;;;;6.80;1.13;;;8.90;99.90;;;;;;5127317;27;20433;-80
2023/12/27 02:07:07;;;;;;;5.35;1.33;;;8.90;99.90;;;;;;5122636;27;20397;-76
2023/12/27 02:09:33;;;;;;;7.45;1.10;;;9.00;99.90;;;;;;5120354;27;20027;-80
2023/12/27 02:11:59;;;;;;;6.80;1.20;;;9.00;99.90;;;;;;5133568;27;20031;-80
2023/12/27 02:14:25;;;;;;;5.50;1.02;;;9.00;99.90;;;;;;5134090;27;20044;-81
2023/12/27 02:16:51;;;;;;;4.18;1.13;;;9.00;99.90;;;;;;5132835;27;20019;-80
2023/12/27 02:19:21;;;;;;;5.97;0.82;;;9.00;99.90;;;;;;5131399;27;20034;-80
2023/12/27 02:21:52;;;;;;;2.85;0.80;;;9.00;99.90;;;;;;5113184;28;20025;-79
2023/12/27 02:24:22;;;;;;;4.10;0.80;;;9.20;99.90;;;;;;5099140;27;20091;-80
2023/12/27 02:26:48;;;;;;;2.97;0.60;;;9.10;99.90;;;;;;5121892;27;20052;-80
2023/12/27 02:29:14;;;;;;;2.08;0.80;;;9.20;99.90;;;;;;5095153;28;20126;-81
2023/12/27 02:31:40;;;;;;;3.97;1.00;;;9.20;99.90;;;;;;5124741;27;20022;-88
2023/12/27 02:34:08;;;;;;;2.95;0.75;;;9.40;99.90;;;;;;5129496;27;20020;-81
2023/12/27 02:36:35;;;;;;;4.20;0.73;;;9.20;99.90;;;;;;5124875;27;20027;-81
2023/12/27 02:39:01;;;;;;;5.28;1.00;;;9.30;99.90;;;;;;5133480;27;20030;-82
2023/12/27 02:41:27;;;;;;;6.32;0.75;;;9.40;99.90;;;;;;5120619;27;20023;-81
2023/12/27 02:43:52;;;;;;;5.03;0.80;;;9.40;99.90;;;;;;5130769;27;20021;-80
2023/12/27 02:46:18;;;;;;;1.98;0.55;;;9.30;99.90;;;;;;5121565;27;20021;-80
2023/12/27 02:48:44;;;;;;;4.38;0.85;;;9.50;99.90;;;;;;5112073;27;20015;-81
2023/12/27 02:51:09;;;;;;;3.25;0.65;;;9.40;99.90;;;;;;5122100;27;20364;-80
2023/12/27 02:53:35;;;;;;;2.67;0.75;;;9.50;99.90;;;;;;5111743;28;20039;-80
2023/12/27 02:56:01;;;;;;;2.67;0.80;;;9.40;99.90;;;;;;5111707;28;20183;-80
2023/12/27 02:58:26;;;;;;;2.00;0.88;;;9.50;99.90;;;;;;5122815;27;20031;-78
2023/12/27 03:00:52;;;;;;;5.95;0.93;;;9.60;99.90;;;;;;5132707;27;20019;-80
2023/12/27 03:03:18;;;;;;;2.92;0.68;;;9.60;99.90;;;;;;5105008;28;20088;-80
2023/12/27 03:05:44;;;;;;;2.80;0.80;;;9.60;99.90;;;;;;5112567;27;20016;-80
2023/12/27 03:08:09;;;;;;;2.17;0.70;;;9.50;99.90;;;;;;5112923;28;20023;-79
2023/12/27 03:10:35;;;;;;;2.75;0.57;;;9.70;99.90;;;;;;5112622;28;20019;-79
2023/12/27 03:13:01;;;;;;;4.28;0.70;;;9.80;99.90;;;;;;5093803;28;20197;-80
2023/12/27 03:15:26;;;;;;;4.20;0.80;;;9.80;99.90;;;;;;5094503;28;20020;-79
2023/12/27 03:17:52;;;;;;;2.00;0.50;;;9.80;99.90;;;;;;5111848;28;20035;-76
2023/12/27 03:20:18;;;;;;;1.50;0.30;;;9.90;99.90;;;;;;5112502;28;20432;-75
2023/12/27 03:22:43;;;;;;;0.50;0.30;;;9.90;99.90;;;;;;5111919;28;20026;-78
2023/12/27 03:25:09;;;;;;;1.50;0.50;;;10.00;99.90;;;;;;5112236;28;20020;-75
2023/12/27 03:27:35;;;;;;;0.88;0.52;;;10.00;99.90;;;;;;5112353;28;20428;-75
2023/12/27 03:30:00;;;;;;;1.20;0.30;;;10.20;99.90;;;;;;5111808;28;20031;-76
2023/12/27 03:32:26;;;;;;;0.57;0.28;;;10.20;99.90;;;;;;5112449;28;20023;-75
2023/12/27 03:34:52;;;;;;;0.45;0.20;;;10.40;99.90;;;;;;5111755;28;20047;-76
2023/12/27 03:37:17;;;;;;;1.75;0.38;;;10.40;99.90;;;;;;5112917;28;20095;-77
2023/12/27 03:39:43;;;;;;;2.15;0.30;;;10.30;99.90;;;;;;5112586;28;20120;-82
2023/12/27 03:42:12;;;;;;;0.55;0.28;;;10.40;99.90;;;;;;5112875;28;20349;-77
2023/12/27 03:44:38;;;;;;;1.23;0.32;;;10.50;99.90;;;;;;5112648;28;20023;-77
2023/12/27 03:47:04;;;;;;;0.50;0.30;;;10.30;99.90;;;;;;5111756;28;20057;-77
2023/12/27 03:49:30;;;;;;;0.75;0.20;;;10.40;99.90;;;;;;5112013;28;20461;-77
2023/12/27 03:51:56;;;;;;;1.33;0.30;;;10.60;99.90;;;;;;5111495;28;20027;-79
2023/12/27 03:54:21;;;;;;;2.05;0.25;;;10.50;99.90;;;;;;5093756;28;20039;-76
2023/12/27 03:56:47;;;;;;;0.68;0.20;;;10.60;99.90;;;;;;5111743;28;20046;-77
2023/12/27 03:59:13;;;;;;;0.00;0.00;;;10.70;99.90;;;;;;5112031;28;20062;-77
2023/12/27 04:01:39;;;;;;;0.93;0.30;;;10.80;99.90;;;;;;5111863;28;20431;-77
2023/12/27 04:04:05;;;;;;;2.33;0.40;;;10.70;99.90;;;;;;5111703;28;20157;-78
2023/12/27 04:06:31;;;;;;;0.98;0.10;;;10.90;99.90;;;;;;5093799;28;20028;-77
2023/12/27 04:08:56;;;;;;;0.68;0.20;;;10.80;99.90;;;;;;5111560;28;20164;-79
2023/12/27 04:11:22;;;;;;;1.05;0.20;;;10.70;99.90;;;;;;5112189;28;20045;-77
2023/12/27 04:13:48;;;;;;;0.85;0.20;;;10.90;99.90;;;;;;5111122;28;20031;-78
2023/12/27 04:16:14;;;;;;;0.10;0.10;;;10.70;99.90;;;;;;5111685;28;20016;-77
2023/12/27 04:18:39;;;;;;;0.22;0.10;;;10.80;99.90;;;;;;5119689;27;20105;-78
2023/12/27 04:21:05;;;;;;;0.10;0.03;;;10.70;99.90;;;;;;5131666;27;20515;-78
2023/12/27 04:23:31;;;;;;;0.95;0.15;;;10.80;99.90;;;;;;5132158;27;20027;-77
2023/12/27 04:25:56;;;;;;;1.00;0.30;;;10.80;99.90;;;;;;5112723;27;20397;-77
2023/12/27 04:28:22;;;;;;;0.00;0.00;;;10.90;99.90;;;;;;5132326;27;20031;-77
2023/12/27 04:30:48;;;;;;;0.20;0.10;;;10.90;99.90;;;;;;5113311;27;20428;-82
2023/12/27 04:33:14;;;;;;;0.13;0.10;;;10.90;99.90;;;;;;5113653;27;20022;-79
2023/12/27 04:35:40;;;;;;;1.60;0.10;;;10.90;99.90;;;;;;5132617;27;20027;-78
2023/12/27 04:38:06;;;;;;;0.10;0.10;;;10.80;99.90;;;;;;5112974;27;20024;-79
2023/12/27 04:40:32;;;;;;;0.35;0.13;;;10.90;99.90;;;;;;5113991;28;20098;-77
2023/12/27 04:42:59;;;;;;;0.40;0.20;;;10.90;99.90;;;;;;5132127;27;20015;-78
2023/12/27 04:45:25;;;;;;;0.90;0.22;;;10.90;99.90;;;;;;5131849;27;20046;-79
2023/12/27 04:47:51;;;;;;;0.35;0.10;;;11.00;99.90;;;;;;5131413;27;20091;-79
2023/12/27 04:50:17;;;;;;;0.30;0.20;;;10.80;99.90;;;;;;5113587;28;20448;-79
2023/12/27 04:52:43;;;;;;;0.88;0.25;;;10.90;99.90;;;;;;5113193;27;20023;-78
2023/12/27 04:55:09;;;;;;;0.45;0.10;;;11.10;99.90;;;;;;5131490;28;20057;-77
2023/12/27 04:57:36;;;;;;;0.20;0.10;;;11.10;99.90;;;;;;5131868;28;20075;-77
2023/12/27 05:00:04;;;;;;;0.00;0.00;;;11.10;99.90;;;;;;5131042;28;20023;-77
2023/12/27 05:02:29;;;;;;;0.93;0.22;;;11.00;99.90;;;;;;5132150;28;20024;-77
2023/12/27 05:04:55;;;;;;;0.10;0.10;;;11.10;99.90;;;;;;5114724;27;20092;-78
2023/12/27 05:07:21;;;;;;;0.73;0.20;;;11.00;99.90;;;;;;5136212;27;20510;-77
2023/12/27 05:09:47;;;;;;;1.08;0.20;;;10.90;99.90;;;;;;5136290;27;20098;-77
2023/12/27 05:12:12;;;;;;;2.72;0.20;;;10.90;99.90;;;;;;5135215;27;20439;-77
2023/12/27 05:14:38;;;;;;;0.52;0.10;;;11.00;99.90;;;;;;5135571;27;20102;-78
2023/12/27 05:17:04;;;;;;;0.40;0.20;;;11.10;99.90;;;;;;5134848;27;20058;-77
2023/12/27 05:19:30;;;;;;;0.20;0.00;;;11.00;99.90;;;;;;5135893;27;20367;-77
2023/12/27 05:21:55;;;;;;;0.10;0.10;;;11.00;99.90;;;;;;5135413;27;20102;-77
2023/12/27 05:24:21;;;;;;;0.30;0.20;;;11.00;99.90;;;;;;5135819;27;20099;-77
2023/12/27 05:26:47;;;;;;;4.07;0.20;;;11.10;99.90;;;;;;5135371;27;20118;-77
2023/12/27 05:29:12;;;;;;;0.40;0.20;;;11.00;99.90;;;;;;5134660;27;20371;-77
2023/12/27 05:31:38;;;;;;;2.97;0.20;;;11.00;99.90;;;;;;5135414;27;20387;-78
2023/12/27 05:34:04;;;;;;;0.10;0.05;;;11.00;99.90;;;;;;5116327;27;20015;-76
2023/12/27 05:36:29;;;;;;;0.10;0.10;;;11.10;99.90;;;;;;5135404;27;20023;-76
2023/12/27 05:38:55;;;;;;;0.00;0.00;;;11.20;99.90;;;;;;5134754;27;20031;-77
2023/12/27 05:41:25;;;;;;;0.77;0.00;;;11.30;99.90;;;;;;5135219;27;20144;-77
2023/12/27 05:43:52;;;;;;;0.10;0.00;;;11.40;99.90;;;;;;5135335;27;20068;-81
2023/12/27 05:46:17;;;;;;;0.38;0.32;;;11.40;99.90;;;;;;5135110;27;20030;-77
2023/12/27 05:48:44;;;;;;;0.10;0.00;;;11.50;99.90;;;;;;5135371;27;20022;-78
2023/12/27 05:51:09;;;;;;;0.00;0.00;;;11.60;99.90;;;;;;5134699;27;20023;-78
2023/12/27 05:53:35;;;;;;;0.43;0.10;;;11.70;99.90;;;;;;5135068;27;20047;-77
2023/12/27 05:56:01;;;;;;;0.22;0.00;;;11.60;99.90;;;;;;5134374;27;20511;-77
2023/12/27 05:58:26;;;;;;;0.20;0.10;;;11.70;99.90;;;;;;5134739;27;20026;-77
2023/12/27 06:00:52;;;;;;;0.52;0.00;;;11.70;99.90;;;;;;5134092;27;20106;-79
2023/12/27 06:03:18;;;;;;;0.00;0.00;;;11.80;99.90;;;;;;5134813;27;20354;-79
2023/12/27 06:05:43;;;;;;;0.10;0.10;;;12.00;99.90;;;;;;5116304;27;20075;-77
2023/12/27 06:08:09;;;;;;;0.57;0.00;;;12.10;99.90;;;;;;5133809;27;20023;-76
2023/12/27 06:10:36;;;;;;;0.10;0.00;;;12.30;99.90;;;;;;5134731;27;20015;-76
2023/12/27 06:13:02;;;;;;;0.70;0.10;;;12.30;99.90;;;;;;5133618;27;20023;-77
2023/12/27 06:15:28;;;;;;;0.73;0.10;;;12.50;99.90;;;;;;5133549;27;20033;-77
2023/12/27 06:17:54;;;;;;;0.13;0.00;;;12.50;99.90;;;;;;5133695;27;20101;-79
2023/12/27 06:20:20;;;;;;;0.10;0.03;;;12.60;99.90;;;;;;5133889;27;20019;-77
2023/12/27 06:22:46;;;;;;;0.75;0.05;;;12.70;99.90;;;;;;5134380;27;20125;-77
2023/12/27 06:25:12;;;;;;;0.10;0.10;;;12.60;99.90;;;;;;5133373;27;20015;-78
2023/12/27 06:27:39;;;;;;;0.47;0.10;;;12.70;99.90;;;;;;5134507;27;20023;-79
2023/12/27 06:30:06;;;;;;;0.57;0.10;;;12.70;99.90;;;;;;5133721;27;20067;-77
2023/12/27 06:32:32;;;;;;;0.77;0.20;;;12.70;99.90;;;;;;5134345;27;20349;-77
2023/12/27 06:34:57;;;;;;;0.82;0.13;;;12.80;99.90;;;;;;5097781;27;20027;-78
2023/12/27 06:37:23;;;;;;;0.50;0.13;;;12.90;99.90;;;;;;5134012;27;20103;-77
2023/12/27 06:39:49;;;;;;;0.20;0.03;;;12.90;99.90;;;;;;5133791;27;20023;-76
2023/12/27 06:42:14;;;;;;;0.52;0.22;;;13.00;99.90;;;;;;5133298;27;20020;-77
2023/12/27 06:44:40;;;;;;;1.20;0.10;;;12.90;99.90;;;;;;5133926;27;20022;-77
2023/12/27 06:47:06;;;;;;;0.95;0.10;;;13.00;99.90;;;;;;5132946;27;20056;-76
2023/12/27 06:49:32;;;;;;;0.10;0.10;;;13.00;99.90;;;;;;5134043;27;20051;-77
2023/12/27 06:51:58;;;;;;;1.25;0.25;;;13.10;99.90;;;;;;5133280;27;20019;-77
2023/12/27 06:54:24;;;;;;;2.47;0.30;;;13.10;99.90;;;;;;5133899;27;20506;-76
2023/12/27 06:56:49;;;;;;;1.98;0.40;;;13.10;99.90;;;;;;5133685;27;20074;-77
2023/12/27 06:59:15;;;;;;;0.75;0.30;;;13.10;99.90;;;;;;5133469;27;20478;-76
2023/12/27 07:01:42;;;;;;;2.75;0.60;;;13.10;99.90;;;;;;5133860;27;20031;-77
2023/12/27 07:04:08;;;;;;;2.55;0.50;;;13.10;99.90;;;;;;5114296;27;20098;-78
2023/12/27 07:06:34;;;;;;;3.28;0.50;;;13.20;99.90;;;;;;5134260;27;20106;-76
2023/12/27 07:08:59;;;;;;;4.00;0.75;;;13.20;99.90;;;;;;5133556;27;20031;-78
2023/12/27 07:11:25;;;;;;;1.50;0.57;;;13.20;99.90;;;;;;5115240;27;20440;-77
2023/12/27 07:13:51;;;;;;;1.60;0.50;;;13.10;99.90;;;;;;5133854;27;20023;-77
2023/12/27 07:16:17;;;;;;;2.83;0.90;;;13.10;99.90;;;;;;5132549;27;20031;-76
2023/12/27 07:18:42;;;;;;;4.80;0.63;;;13.10;99.90;;;;;;5133265;27;20046;-77
2023/12/27 07:21:08;;;;;;;2.53;0.82;;;13.10;99.90;;;;;;5132186;27;20033;-79
2023/12/27 07:23:34;;;;;;;4.60;0.93;;;13.00;99.90;;;;;;5133139;27;20023;-77
2023/12/27 07:26:00;;;;;;;4.63;1.05;;;13.00;99.90;;;;;;5132304;27;20098;-79
2023/12/27 07:28:26;;;;;;;2.35;0.55;;;13.00;99.90;;;;;;5113718;27;20045;-79
2023/12/27 07:30:52;;;;;;;3.22;0.70;;;13.10;99.90;;;;;;5133045;27;20019;-79
2023/12/27 07:33:18;;;;;;;2.33;0.60;;;13.10;99.90;;;;;;5132833;27;20524;-79
2023/12/27 07:35:46;;;;;;;2.33;0.55;;;13.10;99.90;;;;;;5132835;27;20019;-79
2023/12/27 07:38:12;;;;;;;3.58;0.98;;;13.10;99.90;;;;;;5132333;27;20063;-79
2023/12/27 07:40:40;;;;;;;3.08;0.80;;;13.10;99.90;;;;;;5132843;27;20066;-80
2023/12/27 07:43:06;;;;;;;3.00;0.60;;;13.10;99.90;;;;;;5132054;27;20090;-80
2023/12/27 07:45:33;;;;;;;2.47;0.57;;;13.10;99.90;;;;;;5132764;27;20057;-79
2023/12/27 07:47:59;;;;;;;3.88;0.73;;;13.20;99.90;;;;;;5132117;27;20056;-80
2023/12/27 07:50:24;;;;;;;2.10;0.60;;;13.20;99.90;;;;;;5132207;27;20026;-79
2023/12/27 07:52:50;;;;;;;3.88;0.82;;;13.20;99.90;;;;;;5132105;27;20402;-79
2023/12/27 07:55:16;;;;;;;2.45;0.70;;;13.20;99.90;;;;;;5131566;27;20015;-79
2023/12/27 07:57:45;;;;;;;2.60;0.80;;;13.20;99.90;;;;;;5132336;27;20044;-79
2023/12/27 08:00:14;;;;;;;1.05;0.40;;;13.20;99.90;;;;;;5132189;27;20027;-79
2023/12/27 08:02:41;;;;;;;2.13;0.70;;;13.20;99.90;;;;;;5132049;27;20037;-79
2023/12/27 08:05:07;;;;;;;2.25;0.50;;;13.20;99.90;;;;;;5131764;27;20015;-79
2023/12/27 08:07:32;;;;;;;1.75;0.28;;;13.20;99.90;;;;;;5132696;27;20460;-79
2023/12/27 08:09:58;;;;;;;0.75;0.28;;;13.20;99.90;;;;;;5132606;27;20062;-80
2023/12/27 08:12:24;;;;;;;2.05;0.45;;;13.20;99.90;;;;;;5132006;27;20042;-79
2023/12/27 08:14:50;;;;;;;3.13;0.52;;;13.20;99.90;;;;;;5132035;27;20359;-79
2023/12/27 08:17:15;;;;;;;1.30;0.30;;;13.20;99.90;;;;;;5113070;27;20027;-79
2023/12/27 08:19:41;;;;;;;1.00;0.20;;;13.30;99.90;;;;;;5132058;27;20317;-79
2023/12/27 08:22:07;;;;;;;0.98;0.40;;;13.20;99.90;;;;;;5131281;27;20027;-79
2023/12/27 08:24:33;;;;;;;1.77;0.50;;;13.20;99.90;;;;;;5132133;27;20123;-77
2023/12/27 08:26:59;;;;;;;0.50;0.22;;;13.20;99.90;;;;;;5131668;27;20041;-78
2023/12/27 08:29:25;;;;;;;0.10;0.10;;;13.20;99.90;;;;;;5131583;27;20051;-77
2023/12/27 08:31:50;;;;;;;0.50;0.10;;;13.20;99.90;;;;;;5131955;27;20015;-77
2023/12/27 08:34:16;;;;;;;0.30;0.20;;;13.20;99.90;;;;;;5131332;27;20312;-77
2023/12/27 08:36:45;;;;;;;1.40;0.20;;;13.10;99.90;;;;;;5132006;27;20503;-77
2023/12/27 08:39:11;;;;;;;0.75;0.32;;;13.10;99.90;;;;;;5131247;27;20027;-77
2023/12/27 08:41:37;;;;;;;0.77;0.30;;;13.10;99.90;;;;;;5132078;27;20015;-77
2023/12/27 08:44:03;;;;;;;0.90;0.30;;;13.00;99.90;;;;;;5131509;27;20038;-78
2023/12/27 08:46:28;;;;;;;0.90;0.30;;;13.00;99.90;;;;;;5131398;27;20047;-77
2023/12/27 08:48:54;;;;;;;0.73;0.30;;;12.90;99.90;;;;;;5131465;27;20027;-76
2023/12/27 08:51:20;;;;;;;0.65;0.20;;;13.00;99.90;;;;;;5131625;27;20440;-77
2023/12/27 08:53:45;;;;;;;0.95;0.25;;;12.90;99.90;;;;;;5130912;28;20122;-77
2023/12/27 08:56:11;;;;;;;1.52;0.45;;;12.80;99.90;;;;;;5131044;28;20520;-78
2023/12/27 08:58:37;;;;;;;2.55;0.43;;;12.90;99.90;;;;;;5113044;28;20058;-77
2023/12/27 09:01:03;;;;;;;0.80;0.50;;;12.80;99.90;;;;;;5131574;28;20026;-77
2023/12/27 09:03:29;;;;;;;1.63;0.55;;;12.90;99.90;;;;;;5112517;28;20098;-77
2023/12/27 09:05:55;;;;;;;2.28;0.60;;;12.90;99.90;;;;;;5131225;28;20050;-77
2023/12/27 09:08:20;;;;;;;2.33;0.55;;;12.80;99.90;;;;;;5130815;28;20096;-77
2023/12/27 09:10:46;;;;;;;5.10;0.88;;;12.80;99.90;;;;;;5113366;28;20019;-78
2023/12/27 09:13:12;;;;;;;5.43;0.80;;;12.80;99.90;;;;;;5119155;28;20043;-78
2023/12/27 09:15:38;;;;;;;2.47;0.60;;;12.90;99.90;;;;;;5120970;28;20011;-77
2023/12/27 09:18:03;;;;;;;2.22;0.75;;;12.90;99.90;;;;;;5113523;28;20027;-78
2023/12/27 09:20:29;;;;;;;4.35;0.85;;;12.90;99.90;;;;;;5110555;28;20078;-77
2023/12/27 09:22:55;;;;;;;3.65;1.10;;;12.90;99.90;;;;;;5110529;28;20466;-78
2023/12/27 09:25:21;;;;;;;4.03;0.90;;;12.90;99.90;;;;;;5110291;28;20443;-76
2023/12/27 09:27:47;;;;;;;3.20;0.88;;;12.90;99.90;;;;;;5092625;28;20046;-77
2023/12/27 09:30:13;;;;;;;3.72;0.98;;;12.90;99.90;;;;;;5091927;28;20364;-77
2023/12/27 09:32:40;;;;;;;2.47;0.80;;;12.90;99.90;;;;;;5110150;28;20020;-78
2023/12/27 09:35:06;;;;;;;2.28;0.55;;;12.80;99.90;;;;;;5110504;28;20376;-79
2023/12/27 09:37:32;;;;;;;1.70;0.32;;;12.70;99.90;;;;;;5114070;28;20031;-84
2023/12/27 09:39:57;;;;;;;0.75;0.22;;;12.30;99.90;;;;;;5119294;28;20011;-83
2023/12/27 09:42:23;;;;;;;0.43;0.35;;;11.90;99.90;;;;;;5101081;28;20448;-82
2023/12/27 09:44:51;;;;;;;1.50;0.30;;;11.60;99.90;;;;;;5127079;28;20169;-81
2023/12/27 09:47:18;;;;;;;0.30;0.30;;;11.40;99.90;;;;;;5131170;28;20084;-79
2023/12/27 09:49:44;;;;;;;0.98;0.30;;;11.10;99.90;;;;;;5131749;27;20083;-79
2023/12/27 09:52:12;;;;;;;1.13;0.38;;;11.00;99.90;;;;;;5134162;27;20020;-79
2023/12/27 09:54:38;;;;;;;2.42;0.50;;;10.80;99.90;;;;;;5139460;27;20455;-79
2023/12/27 09:57:04;;;;;;;1.38;0.22;;;10.80;99.90;;;;;;5128389;27;20079;-79
2023/12/27 09:59:38;;;;;;;0.30;0.30;;;10.70;99.90;;;;;;5144990;27;20031;-78
2023/12/27 10:02:11;;;;;;;5.25;0.80;;;10.70;99.90;;;;;;5113958;28;20118;-78
2023/12/27 10:04:56;;;;;;;1.15;1.00;;;10.60;99.90;;;;;;5113806;28;20069;-80
2023/12/27 10:07:24;;;;;;;3.47;1.10;;;10.60;99.90;;;;;;5113595;28;20040;-79
2023/12/27 10:09:50;;;;;;;0.80;0.60;;;10.60;99.90;;;;;;5113697;28;20120;-79
2023/12/27 10:12:16;;;;;;;1.00;0.90;;;10.60;99.90;;;;;;5097218;27;20022;-79
2023/12/27 10:14:43;;;;;;;1.40;1.30;;;10.60;99.90;;;;;;5124972;27;20023;-78
2023/12/27 10:17:09;;;;;;;1.45;1.35;;;10.60;99.90;;;;;;5122705;27;20051;-80
2023/12/27 10:19:40;;;;;;;2.50;1.20;;;10.60;99.90;;;;;;5117708;27;20131;-79
2023/12/27 10:22:06;;;;;;;2.92;1.00;;;10.50;99.90;;;;;;5113714;28;20047;-79
2023/12/27 10:24:32;;;;;;;1.10;1.00;;;10.60;99.90;;;;;;5094461;28;20059;-79
2023/12/27 10:26:58;;;;;;;1.60;1.10;;;10.60;99.90;;;;;;5113820;28;20525;-79
2023/12/27 10:29:24;;;;;;;1.73;1.30;;;10.60;99.90;;;;;;5112373;28;20142;-79
2023/12/27 10:31:50;;;;;;;3.58;1.30;;;10.60;99.90;;;;;;5114070;28;20023;-79
2023/12/27 10:34:15;;;;;;;1.05;0.82;;;10.60;99.90;;;;;;5113029;28;20031;-78
2023/12/27 10:36:42;;;;;;;1.45;0.40;;;10.70;99.90;;;;;;5113411;28;20023;-78
2023/12/27 10:39:11;;;;;;;1.17;0.80;;;10.60;99.90;;;;;;5113792;28;20449;-79
2023/12/27 10:41:40;;;;;;;1.80;0.77;;;10.60;99.90;;;;;;5124572;27;20110;-79
2023/12/27 10:44:05;;;;;;;1.58;0.82;;;10.70;99.90;;;;;;5122527;27;20031;-79
2023/12/27 10:46:31;;;;;;;1.25;0.93;;;10.70;99.90;;;;;;5127650;27;20089;-79
2023/12/27 10:49:03;;;;;;;2.97;1.80;;;10.80;99.90;;;;;;5115526;27;20470;-79
2023/12/27 10:51:29;;;;;;;2.53;2.33;;;10.70;99.90;;;;;;5129738;27;20038;-79
2023/12/27 10:54:00;;;;;;;0.75;0.68;;;10.80;99.90;;;;;;5113034;28;20131;-79
2023/12/27 10:56:26;;;;;;;1.30;0.73;;;10.80;99.90;;;;;;5112024;28;20028;-79
2023/12/27 10:58:52;;;;;;;0.93;0.77;;;10.80;99.90;;;;;;5112955;28;20497;-79
2023/12/27 11:01:21;;;;;;;1.73;0.80;;;10.80;99.90;;;;;;5111738;28;20081;-79
2023/12/27 11:03:49;;;;;;;1.15;1.05;;;10.80;99.90;;;;;;5094119;28;20106;-79
2023/12/27 11:06:19;;;;;;;3.28;3.08;;;10.90;99.90;;;;;;5112058;28;20015;-80
2023/12/27 11:08:46;;;;;;;0.93;0.30;;;10.80;99.90;;;;;;5112244;28;20099;-79
2023/12/27 11:11:13;;;;;;;0.30;0.30;;;10.90;99.90;;;;;;5093427;28;20163;-80
2023/12/27 11:13:40;;;;;;;2.33;0.60;;;10.90;99.90;;;;;;5093912;28;20051;-79
2023/12/27 11:16:10;;;;;;;0.40;0.40;;;11.00;99.90;;;;;;5112335;28;20016;-79
2023/12/27 11:18:38;;;;;;;0.17;0.17;;;10.90;99.90;;;;;;5111804;28;20473;-79
2023/12/27 11:21:04;;;;;;;0.20;0.20;;;10.90;99.90;;;;;;5112271;28;20401;-79
2023/12/27 11:23:30;;;;;;;0.22;0.22;;;11.00;99.90;;;;;;5111681;28;20024;-79
2023/12/27 11:25:56;;;;;;;1.23;0.40;;;11.00;99.90;;;;;;5112347;28;20367;-79
2023/12/27 11:28:23;;;;;;;0.80;0.38;;;11.00;99.90;;;;;;5111054;28;20019;-79
2023/12/27 11:30:49;;;;;;;2.22;1.30;;;11.00;99.90;;;;;;5111877;28;20448;-79
2023/12/27 11:33:22;;;;;;;1.67;1.27;;;10.90;99.90;;;;;;5111414;28;20114;-82
2023/12/27 11:35:48;;;;;;;25.98;15.55;;;11.00;99.90;;;;;;5112004;28;20465;-80
2023/12/27 11:38:20;;;;;;;6.60;5.03;;;11.00;99.90;;;;;;5111116;28;20027;-83
2023/12/27 11:40:50;;;;;;;0.73;0.60;;;11.10;99.90;;;;;;5111269;28;20090;-80
2023/12/27 11:43:24;;;;;;;0.63;0.40;;;11.00;99.90;;;;;;5092804;28;20042;-81
2023/12/27 11:46:03;;;;;;;1.15;0.20;;;11.10;99.90;;;;;;5111811;28;20213;-80
2023/12/27 11:48:35;;;;;;;0.68;0.40;;;11.10;99.90;;;;;;5092804;28;20432;-79
2023/12/27 11:51:02;;;;;;;1.35;0.80;;;11.10;99.90;;;;;;5111910;28;20015;-80
2023/12/27 11:53:29;;;;;;;0.55;0.50;;;11.10;99.90;;;;;;5110455;28;20060;-80
2023/12/27 11:55:59;;;;;;;2.38;0.43;;;11.10;99.90;;;;;;5111341;28;20064;-80
2023/12/27 11:58:35;;;;;;;0.38;0.20;;;11.20;99.90;;;;;;5110921;28;20051;-79
2023/12/27 12:01:21;;;;;;;0.30;0.30;;;11.20;99.90;;;;;;5111228;28;20019;-78
2023/12/27 12:04:06;;;;;;;0.35;0.22;;;11.10;99.90;;;;;;5111479;28;20372;-78
2023/12/27 12:06:49;;;;;;;1.95;0.57;;;11.20;99.90;;;;;;5110483;28;20031;-79
2023/12/27 12:09:16;;;;;;;4.20;3.00;;;11.10;99.90;;;;;;5110173;28;20016;-80
2023/12/27 12:11:45;;;;;;;0.95;0.95;;;11.10;99.90;;;;;;5110813;28;20425;-79
2023/12/27 12:14:11;;;;;;;4.15;2.20;;;11.10;99.90;;;;;;5110590;28;20091;-79
2023/12/27 12:16:38;;;;;;;1.52;1.20;;;11.20;99.90;;;;;;5109908;28;20115;-79
2023/12/27 12:19:08;;;;;;;1.38;1.08;;;11.20;99.90;;;;;;5111206;28;20466;-79
2023/12/27 12:21:34;;;;;;;1.30;1.05;;;11.20;99.90;;;;;;5110218;28;20059;-79
2023/12/27 12:24:09;;;;;;;0.93;0.90;;;11.20;99.90;;;;;;5110998;28;20066;-79
2023/12/27 12:26:35;;;;;;;0.73;0.40;;;11.20;99.90;;;;;;5110063;28;20635;-80
2023/12/27 12:29:03;;;;;;;0.40;0.32;;;11.30;99.90;;;;;;5092676;28;20016;-80
2023/12/27 12:31:31;;;;;;;0.57;0.40;;;11.30;99.90;;;;;;5109985;28;20123;-79
2023/12/27 12:33:57;;;;;;;1.48;0.60;;;11.30;99.90;;;;;;5110841;28;20417;-80
2023/12/27 12:36:23;;;;;;;2.15;0.60;;;11.40;99.90;;;;;;5109956;28;20031;-79
2023/12/27 12:38:49;;;;;;;0.38;0.38;;;11.40;99.90;;;;;;5110451;28;20050;-79
2023/12/27 12:41:16;;;;;;;0.30;0.30;;;11.40;99.90;;;;;;5109839;28;20016;-82
2023/12/27 12:43:43;;;;;;;1.77;0.57;;;11.40;99.90;;;;;;5095411;27;20030;-80